Time;durP1;ratioP1;P1;durP2;ratioP2;P2;SDS_P1;SDS_P2;PMS_P1;PMS_P2;Temp;Humidity;BMP_temperature;BMP_pressure;BME280_temperature;BME280_humidity;BME280_pressure;Samples;Min_cycle;Max_cycle;Signal;HPM_P1;HPM_P2
2024/04/12 00:02:08;;;;;;;2.85;1.95;;;;;;;;;;5491726;26;20078;-78
2024/04/12 00:04:37;;;;;;;4.68;1.88;;;;;;;;;;5493383;26;20077;-78
2024/04/12 00:07:13;;;;;;;2.25;1.35;;;;;;;;;;5491490;26;20002;-79
2024/04/12 00:09:44;;;;;;;5.15;1.60;;;;;;;;;;5493523;26;20043;-80
2024/04/12 00:12:14;;;;;;;3.03;1.70;;;;;;;;;;5492661;26;20073;-80
2024/04/12 00:14:43;;;;;;;7.13;1.98;;;;;;;;;;5491348;26;19998;-79
2024/04/12 00:17:15;;;;;;;5.45;1.83;;;;;;;;;;5491576;26;20058;-79
2024/04/12 00:19:45;;;;;;;3.55;1.90;;;;;;;;;;5492039;26;20002;-79
2024/04/12 00:22:17;;;;;;;3.17;2.03;;;;;;;;;;5492182;26;20009;-78
2024/04/12 00:24:45;;;;;;;4.00;2.00;;;;;;;;;;5493920;26;20013;-80
2024/04/12 00:27:15;;;;;;;5.93;1.88;;;;;;;;;;5493754;26;20044;-79
2024/04/12 00:29:46;;;;;;;2.95;1.60;;;;;;;;;;5493891;26;20026;-79
2024/04/12 00:32:16;;;;;;;4.13;1.80;;;;;;;;;;5491577;26;19994;-79
2024/04/12 00:34:47;;;;;;;2.03;1.85;;;;;;;;;;5493547;26;20013;-80
2024/04/12 00:37:16;;;;;;;3.10;2.03;;;;;;;;;;5480046;26;20325;-80
2024/04/12 00:39:49;;;;;;;3.15;1.90;;;;;;;;;;5525687;26;20002;-80
2024/04/12 00:42:26;;;;;;;2.65;1.98;;;;;;;;;;5494385;26;20034;-80
2024/04/12 00:44:54;;;;;;;3.67;2.00;;;;;;;;;;5493345;26;20010;-80
2024/04/12 00:47:23;;;;;;;3.17;1.92;;;;;;;;;;5494690;26;20324;-78
2024/04/12 00:49:51;;;;;;;3.97;2.00;;;;;;;;;;5493209;26;20006;-79
2024/04/12 00:52:23;;;;;;;4.97;2.00;;;;;;;;;;5491653;26;20013;-79
2024/04/12 00:54:56;;;;;;;6.43;2.35;;;;;;;;;;5492034;26;20014;-79
2024/04/12 00:57:24;;;;;;;5.00;2.10;;;;;;;;;;5490497;26;20030;-78
2024/04/12 00:59:52;;;;;;;5.68;2.13;;;;;;;;;;5493305;26;20045;-79
2024/04/12 01:02:21;;;;;;;2.70;1.80;;;;;;;;;;5493349;26;20017;-78
2024/04/12 01:04:49;;;;;;;5.57;2.30;;;;;;;;;;5493122;26;20002;-78
2024/04/12 01:07:18;;;;;;;4.43;2.00;;;;;;;;;;5492805;26;20002;-78
2024/04/12 01:09:45;;;;;;;3.97;1.90;;;;;;;;;;5493065;26;19998;-79
2024/04/12 01:12:17;;;;;;;4.85;2.03;;;;;;;;;;5491080;26;20079;-79
2024/04/12 01:14:48;;;;;;;5.90;1.90;;;;;;;;;;5490586;26;20483;-79
2024/04/12 01:17:17;;;;;;;7.05;2.20;;;;;;;;;;5491782;26;20002;-78
2024/04/12 01:19:46;;;;;;;2.10;1.92;;;;;;;;;;5492904;26;20002;-79
2024/04/12 01:22:14;;;;;;;5.82;2.05;;;;;;;;;;5492917;26;20010;-78
2024/04/12 01:24:42;;;;;;;5.07;2.03;;;;;;;;;;5490301;26;20474;-78
2024/04/12 01:27:09;;;;;;;3.20;2.20;;;;;;;;;;5490410;26;20006;-78
2024/04/12 01:29:37;;;;;;;9.70;2.20;;;;;;;;;;5491605;26;20452;-78
2024/04/12 01:32:05;;;;;;;2.83;2.00;;;;;;;;;;5494558;26;20010;-79
2024/04/12 01:34:33;;;;;;;2.20;1.90;;;;;;;;;;5491777;26;20553;-78
2024/04/12 01:37:03;;;;;;;3.38;1.88;;;;;;;;;;5494295;26;20010;-79
2024/04/12 01:39:34;;;;;;;5.03;2.55;;;;;;;;;;5492006;26;20002;-78
2024/04/12 01:42:04;;;;;;;2.03;1.70;;;;;;;;;;5493263;26;20002;-78
2024/04/12 01:44:32;;;;;;;5.13;1.90;;;;;;;;;;5495494;26;20006;-79
2024/04/12 01:47:03;;;;;;;7.25;1.92;;;;;;;;;;5492326;26;20004;-79
2024/04/12 01:49:34;;;;;;;6.18;1.90;;;;;;;;;;5526512;26;20014;-82
2024/04/12 01:52:12;;;;;;;2.35;1.80;;;;;;;;;;5497847;26;20075;-80
2024/04/12 01:55:04;;;;;;;2.83;1.73;;;;;;;;;;5496859;26;20017;-81
2024/04/12 01:57:28;;;;;;;2.30;1.73;;;;;;;;;;5462628;26;20003;-81
2024/04/12 01:59:55;;;;;;;2.30;1.88;;;;;;;;;;5466363;26;19999;-78
2024/04/12 02:02:23;;;;;;;4.20;2.15;;;;;;;;;;5519124;26;19998;-79
2024/04/12 02:04:56;;;;;;;3.95;2.33;;;;;;;;;;5497588;26;20010;-79
2024/04/12 02:07:27;;;;;;;4.47;2.08;;;;;;;;;;5495784;26;20002;-79
2024/04/12 02:10:07;;;;;;;4.53;1.88;;;;;;;;;;5494983;26;19998;-79
2024/04/12 02:12:36;;;;;;;2.92;2.10;;;;;;;;;;5497417;26;20017;-79
2024/04/12 02:15:19;;;;;;;4.45;2.20;;;;;;;;;;5495799;26;20002;-79
2024/04/12 02:18:02;;;;;;;3.57;2.40;;;;;;;;;;5497341;26;20445;-81
2024/04/12 02:20:34;;;;;;;7.78;2.90;;;;;;;;;;5497154;26;20474;-79
2024/04/12 02:23:04;;;;;;;4.97;3.05;;;;;;;;;;5494157;26;20395;-78
2024/04/12 02:25:36;;;;;;;4.57;2.90;;;;;;;;;;5494442;26;20010;-78
2024/04/12 02:28:08;;;;;;;3.83;2.30;;;;;;;;;;5494574;26;20006;-78
2024/04/12 02:30:41;;;;;;;5.57;2.83;;;;;;;;;;5494641;26;20443;-78
2024/04/12 02:33:16;;;;;;;4.07;2.60;;;;;;;;;;5496106;26;20348;-79
2024/04/12 02:35:44;;;;;;;4.38;2.10;;;;;;;;;;5495724;26;20331;-81
2024/04/12 02:38:15;;;;;;;2.15;2.00;;;;;;;;;;5496933;26;20003;-80
2024/04/12 02:40:43;;;;;;;6.93;2.67;;;;;;;;;;5496594;26;20030;-80
2024/04/12 02:43:15;;;;;;;4.90;2.13;;;;;;;;;;5497134;26;20009;-80
2024/04/12 02:45:48;;;;;;;2.97;1.98;;;;;;;;;;5493817;26;20006;-80
2024/04/12 02:48:22;;;;;;;;;;;;;;;;;;5494818;26;20010;-79
2024/04/12 02:50:53;;;;;;;3.75;2.67;;;;;;;;;;5493089;26;19947;-81
2024/04/12 02:53:23;;;;;;;4.03;2.50;;;;;;;;;;5483950;26;20002;-80
2024/04/12 02:56:00;;;;;;;3.88;2.60;;;;;;;;;;5496397;26;20043;-80
2024/04/12 02:58:38;;;;;;;3.95;2.30;;;;;;;;;;5496661;26;20037;-81
2024/04/12 03:01:12;;;;;;;3.10;2.35;;;;;;;;;;5495615;26;20070;-81
2024/04/12 03:03:47;;;;;;;3.55;2.33;;;;;;;;;;5497142;26;19998;-78
2024/04/12 03:06:25;;;;;;;2.88;2.20;;;;;;;;;;5483902;26;20483;-78
2024/04/12 03:08:53;;;;;;;5.35;2.25;;;;;;;;;;5499111;26;20074;-79
2024/04/12 03:11:22;;;;;;;5.13;2.63;;;;;;;;;;5497130;26;19999;-81
2024/04/12 03:13:51;;;;;;;3.90;2.40;;;;;;;;;;5496999;26;19997;-79
2024/04/12 03:16:19;;;;;;;4.75;2.25;;;;;;;;;;5496408;26;20017;-80
2024/04/12 03:18:51;;;;;;;7.07;2.50;;;;;;;;;;5499249;26;20051;-79
2024/04/12 03:21:25;;;;;;;5.15;2.88;;;;;;;;;;5497342;26;20013;-79
2024/04/12 03:23:54;;;;;;;2.30;2.10;;;;;;;;;;5498173;26;20013;-79
2024/04/12 03:26:22;;;;;;;6.20;2.40;;;;;;;;;;5496890;26;20006;-81
2024/04/12 03:28:53;;;;;;;2.25;2.05;;;;;;;;;;5496098;26;20066;-80
2024/04/12 03:31:25;;;;;;;4.78;2.40;;;;;;;;;;5497548;26;20074;-80
2024/04/12 03:34:00;;;;;;;8.90;2.60;;;;;;;;;;5496954;26;20016;-78
2024/04/12 03:41:44;;;;;;;3.95;2.17;;;;;;;;;;5497511;26;19999;-81
2024/04/12 03:44:13;;;;;;;4.53;2.95;;;;;;;;;;5468073;26;20002;-81
2024/04/12 03:46:41;;;;;;;5.70;3.42;;;;;;;;;;5496588;26;20002;-81
2024/04/12 03:49:14;;;;;;;9.63;3.95;;;;;;;;;;5499510;26;20016;-81
2024/04/12 03:51:44;;;;;;;8.30;2.40;;;;;;;;;;5499542;26;20049;-79
2024/04/12 03:54:12;;;;;;;6.10;2.80;;;;;;;;;;5462788;26;20014;-79
2024/04/12 03:56:40;;;;;;;6.75;3.33;;;;;;;;;;5520368;26;20013;-78
2024/04/12 03:59:07;;;;;;;5.88;3.13;;;;;;;;;;5497790;26;20021;-78
2024/04/12 04:01:37;;;;;;;5.97;2.83;;;;;;;;;;5498399;26;20364;-81
2024/04/12 04:04:10;;;;;;;7.15;2.63;;;;;;;;;;5528097;26;20010;-78
2024/04/12 04:06:37;;;;;;;4.90;2.10;;;;;;;;;;5527164;26;20022;-79
2024/04/12 04:09:11;;;;;;;5.03;2.10;;;;;;;;;;5499824;26;20021;-81
2024/04/12 04:11:42;;;;;;;7.78;2.67;;;;;;;;;;5498949;26;20002;-81
2024/04/12 04:14:10;;;;;;;4.22;2.50;;;;;;;;;;5461285;26;20014;-81
2024/04/12 04:16:38;;;;;;;4.45;2.58;;;;;;;;;;5521501;26;20017;-81
2024/04/12 04:19:10;;;;;;;5.68;2.33;;;;;;;;;;5505480;26;20002;-79
2024/04/12 04:21:38;;;;;;;4.07;2.17;;;;;;;;;;5499331;26;20038;-81
2024/04/12 04:24:08;;;;;;;5.22;2.35;;;;;;;;;;5498093;26;20416;-81
2024/04/12 04:26:37;;;;;;;2.10;1.90;;;;;;;;;;5498701;26;20005;-82
2024/04/12 04:29:11;;;;;;;6.60;2.38;;;;;;;;;;5499079;26;21391;-82
2024/04/12 04:31:48;;;;;;;4.65;2.67;;;;;;;;;;5525802;26;20005;-81
2024/04/12 04:34:17;;;;;;;10.90;2.70;;;;;;;;;;5498730;26;20072;-80
2024/04/12 04:36:48;;;;;;;4.05;2.17;;;;;;;;;;5500947;26;20027;-80
2024/04/12 04:39:21;;;;;;;4.97;2.20;;;;;;;;;;5496728;26;20005;-80
2024/04/12 04:41:53;;;;;;;4.60;2.75;;;;;;;;;;5496052;26;20010;-80
2024/04/12 04:44:22;;;;;;;7.22;2.80;;;;;;;;;;5498719;26;19998;-81
2024/04/12 04:46:50;;;;;;;9.27;2.70;;;;;;;;;;5496520;26;20017;-80
2024/04/12 04:49:25;;;;;;;7.85;2.80;;;;;;;;;;5493096;26;20026;-80
2024/04/12 04:51:52;;;;;;;6.80;2.38;;;;;;;;;;5494506;26;20030;-81
2024/04/12 04:54:23;;;;;;;4.55;2.58;;;;;;;;;;5497427;26;20002;-80
2024/04/12 04:56:51;;;;;;;5.22;2.65;;;;;;;;;;5493653;26;20348;-81
2024/04/12 04:59:28;;;;;;;3.63;2.13;;;;;;;;;;5493015;26;19998;-80
2024/04/12 05:01:56;;;;;;;7.35;3.17;;;;;;;;;;5494441;26;20002;-81
2024/04/12 05:04:25;;;;;;;3.08;2.45;;;;;;;;;;5494513;26;20404;-80
2024/04/12 05:06:53;;;;;;;5.22;2.20;;;;;;;;;;5493254;26;20351;-80
2024/04/12 05:09:21;;;;;;;6.38;2.55;;;;;;;;;;5525287;26;20002;-80
2024/04/12 05:11:52;;;;;;;6.97;2.50;;;;;;;;;;5525480;26;20022;-80
2024/04/12 05:17:05;;;;;;;6.55;2.20;;;;;;;;;;5495264;26;20016;-80
2024/04/12 05:19:40;;;;;;;5.43;2.42;;;;;;;;;;5494310;26;20014;-80
2024/04/12 05:22:10;;;;;;;7.53;3.00;;;;;;;;;;5493509;26;20006;-80
2024/04/12 05:24:39;;;;;;;5.75;2.47;;;;;;;;;;5494653;26;20008;-81
2024/04/12 05:27:10;;;;;;;5.57;2.47;;;;;;;;;;5494293;26;19998;-80
2024/04/12 05:29:38;;;;;;;4.55;2.10;;;;;;;;;;5495297;26;20006;-81
2024/04/12 05:32:06;;;;;;;5.03;2.33;;;;;;;;;;5494615;26;20002;-80
2024/04/12 05:34:40;;;;;;;13.63;2.35;;;;;;;;;;5486837;26;20407;-80
2024/04/12 05:37:08;;;;;;;29.83;4.32;;;;;;;;;;5474792;26;20081;-81
2024/04/12 05:39:36;;;;;;;9.25;2.78;;;;;;;;;;5479401;26;20054;-80
2024/04/12 05:42:07;;;;;;;12.90;2.50;;;;;;;;;;5481762;26;20002;-80
2024/04/12 05:44:35;;;;;;;5.40;2.35;;;;;;;;;;5478644;26;20410;-81
2024/04/12 05:47:09;;;;;;;4.30;1.48;;;;;;;;;;5484422;26;20006;-82
2024/04/12 05:49:37;;;;;;;9.02;2.00;;;;;;;;;;5475472;26;20516;-81
2024/04/12 05:52:06;;;;;;;9.00;1.88;;;;;;;;;;5500476;26;20487;-82
2024/04/12 05:54:44;;;;;;;13.60;2.22;;;;;;;;;;5525890;26;19999;-80
2024/04/12 05:57:12;;;;;;;7.15;1.90;;;;;;;;;;5499741;26;20011;-80
2024/04/12 05:59:42;;;;;;;6.00;2.20;;;;;;;;;;5457840;26;19999;-78
2024/04/12 06:02:10;;;;;;;5.53;2.67;;;;;;;;;;5456744;26;20014;-78
2024/04/12 06:04:38;;;;;;;7.05;2.00;;;;;;;;;;5455223;26;20007;-78
2024/04/12 06:07:11;;;;;;;6.85;1.88;;;;;;;;;;5489933;26;20006;-78
2024/04/12 06:09:39;;;;;;;4.75;1.60;;;;;;;;;;5491894;26;20002;-78
2024/04/12 06:12:07;;;;;;;6.72;2.80;;;;;;;;;;5494041;26;19999;-78
2024/04/12 06:14:38;;;;;;;9.73;2.83;;;;;;;;;;5493802;26;20006;-78
2024/04/12 06:17:08;;;;;;;8.27;2.53;;;;;;;;;;5493898;26;19994;-78
2024/04/12 06:19:38;;;;;;;6.85;2.80;;;;;;;;;;5496992;26;20010;-80
2024/04/12 06:22:15;;;;;;;9.98;3.05;;;;;;;;;;5495349;26;19998;-78
2024/04/12 06:24:43;;;;;;;8.35;3.05;;;;;;;;;;5494471;26;20026;-78
2024/04/12 06:27:10;;;;;;;16.23;3.95;;;;;;;;;;5495028;26;20073;-79
2024/04/12 06:29:38;;;;;;;8.45;4.47;;;;;;;;;;5494158;26;20010;-79
2024/04/12 06:32:08;;;;;;;10.70;3.33;;;;;;;;;;5495620;26;20002;-79
2024/04/12 06:34:37;;;;;;;6.28;2.15;;;;;;;;;;5497374;26;20384;-79
2024/04/12 06:37:07;;;;;;;7.40;2.95;;;;;;;;;;5496757;26;20010;-78
2024/04/12 06:39:35;;;;;;;11.57;4.15;;;;;;;;;;5496194;26;20359;-79
2024/04/12 06:42:08;;;;;;;6.07;2.88;;;;;;;;;;5498107;26;19999;-79
2024/04/12 06:44:37;;;;;;;6.80;3.35;;;;;;;;;;5496397;26;20005;-79
2024/04/12 06:47:09;;;;;;;8.90;3.20;;;;;;;;;;5496635;26;20008;-79
2024/04/12 06:49:44;;;;;;;6.00;2.17;;;;;;;;;;5497650;26;19994;-79
2024/04/12 06:52:14;;;;;;;2.83;1.85;;;;;;;;;;5496264;26;19998;-78
2024/04/12 06:54:42;;;;;;;8.27;2.70;;;;;;;;;;5496784;26;20455;-79
2024/04/12 06:57:17;;;;;;;5.57;2.28;;;;;;;;;;5497149;26;20337;-79
2024/04/12 06:59:53;;;;;;;6.28;2.05;;;;;;;;;;5497121;26;19994;-79
2024/04/12 07:02:26;;;;;;;4.10;2.55;;;;;;;;;;5497451;26;20026;-79
2024/04/12 07:04:54;;;;;;;2.97;1.98;;;;;;;;;;5498304;26;20005;-79
2024/04/12 07:07:22;;;;;;;4.43;2.00;;;;;;;;;;5502594;26;20006;-81
2024/04/12 07:09:57;;;;;;;5.25;1.95;;;;;;;;;;5498334;26;20013;-79
2024/04/12 07:12:27;;;;;;;2.00;1.55;;;;;;;;;;5499489;26;19997;-79
2024/04/12 07:14:56;;;;;;;4.82;1.60;;;;;;;;;;5499411;26;19998;-79
2024/04/12 07:17:25;;;;;;;4.78;1.75;;;;;;;;;;5496490;26;20014;-79
2024/04/12 07:19:57;;;;;;;3.80;1.75;;;;;;;;;;5498165;26;20002;-79
2024/04/12 07:22:26;;;;;;;3.05;1.63;;;;;;;;;;5498284;26;20001;-79
2024/04/12 07:24:55;;;;;;;6.35;2.13;;;;;;;;;;5496910;26;20335;-79
2024/04/12 07:27:27;;;;;;;2.33;1.38;;;;;;;;;;5496421;26;20066;-80
2024/04/12 07:29:55;;;;;;;5.55;1.85;;;;;;;;;;5498184;26;20556;-79
2024/04/12 07:32:25;;;;;;;3.75;1.63;;;;;;;;;;5498937;26;20069;-79
2024/04/12 07:34:53;;;;;;;2.72;1.63;;;;;;;;;;5496113;26;20002;-80
2024/04/12 07:37:27;;;;;;;2.97;1.60;;;;;;;;;;5496770;26;20031;-79
2024/04/12 07:42:46;;;;;;;4.40;1.58;;;;;;;;;;5497775;26;19999;-80
2024/04/12 07:45:17;;;;;;;4.75;1.17;;;;;;;;;;5496899;26;20491;-80
2024/04/12 07:47:53;;;;;;;3.72;1.45;;;;;;;;;;5495751;26;20009;-80
2024/04/12 07:50:31;;;;;;;4.32;1.40;;;;;;;;;;5493825;26;19998;-79
2024/04/12 07:53:21;;;;;;;3.83;1.48;;;;;;;;;;5491937;26;20069;-79
2024/04/12 07:56:08;;;;;;;2.28;1.40;;;;;;;;;;5490968;26;20009;-80
2024/04/12 07:58:40;;;;;;;3.00;1.58;;;;;;;;;;5493680;26;19998;-79
2024/04/12 08:01:09;;;;;;;3.17;1.50;;;;;;;;;;5491479;26;20013;-79
2024/04/12 08:03:40;;;;;;;3.45;1.08;;;;;;;;;;5492808;26;19998;-79
2024/04/12 08:06:19;;;;;;;3.28;1.10;;;;;;;;;;5493523;26;20005;-79
2024/04/12 08:08:47;;;;;;;3.22;1.60;;;;;;;;;;5492911;26;20006;-79
2024/04/12 08:11:33;;;;;;;4.00;1.02;;;;;;;;;;5496667;26;20013;-79
2024/04/12 08:14:06;;;;;;;3.22;1.20;;;;;;;;;;5494574;26;19990;-79
2024/04/12 08:16:37;;;;;;;;;;;;;;;;;;5493885;26;19994;-79
2024/04/12 08:19:12;;;;;;;2.90;0.90;;;;;;;;;;5494914;26;19930;-79
2024/04/12 08:21:41;;;;;;;3.67;1.10;;;;;;;;;;5492781;26;20002;-79
2024/04/12 08:24:15;;;;;;;3.72;1.25;;;;;;;;;;5492353;26;20066;-80
2024/04/12 08:26:45;;;;;;;2.30;0.90;;;;;;;;;;5494286;26;20373;-80
2024/04/12 08:29:23;;;;;;;2.28;1.08;;;;;;;;;;5491725;26;20455;-80
2024/04/12 08:31:59;;;;;;;4.32;0.70;;;;;;;;;;5491653;26;19994;-79
2024/04/12 08:34:33;;;;;;;5.03;0.93;;;;;;;;;;5492261;26;19998;-79
2024/04/12 08:37:12;;;;;;;6.63;3.43;;;;;;;;;;5493110;26;20046;-79
2024/04/12 08:39:44;;;;;;;9.60;1.92;;;;;;;;;;5492630;26;19998;-80
2024/04/12 08:42:14;;;;;;;1.80;0.90;;;;;;;;;;5492065;26;19994;-79
2024/04/12 08:44:43;;;;;;;1.63;0.50;;;;;;;;;;5490310;26;20332;-79
2024/04/12 08:47:51;;;;;;;2.63;0.80;;;;;;;;;;5493526;26;20009;-78
2024/04/12 08:50:07;;;;;;;1.13;0.52;;;;;;;;;;5491621;26;19990;-79
2024/04/12 08:52:43;;;;;;;3.88;0.65;;;;;;;;;;5521233;26;19998;-79
2024/04/12 08:55:14;;;;;;;1.23;0.70;;;;;;;;;;5515391;26;20071;-78
2024/04/12 08:57:47;;;;;;;2.30;0.75;;;;;;;;;;5453670;26;19995;-80
2024/04/12 09:00:17;;;;;;;2.95;1.02;;;;;;;;;;5455747;26;19998;-76
2024/04/12 09:02:50;;;;;;;4.18;0.68;;;;;;;;;;5453891;26;19999;-79
2024/04/12 09:05:22;;;;;;;2.05;0.60;;;;;;;;;;5491504;26;20002;-77
2024/04/12 09:07:51;;;;;;;1.40;0.60;;;;;;;;;;5519702;26;20074;-80
2024/04/12 09:10:19;;;;;;;1.55;0.70;;;;;;;;;;5491218;26;20009;-77
2024/04/12 09:12:46;;;;;;;2.78;0.60;;;;;;;;;;5489243;26;20042;-77
2024/04/12 09:15:24;;;;;;;3.17;0.68;;;;;;;;;;5489427;26;19994;-79
2024/04/12 09:18:00;;;;;;;1.20;0.50;;;;;;;;;;5490980;26;20013;-77
2024/04/12 09:20:31;;;;;;;2.80;0.68;;;;;;;;;;5489610;26;20066;-79
2024/04/12 09:23:19;;;;;;;3.47;0.80;;;;;;;;;;5487474;26;20074;-79
2024/04/12 09:25:54;;;;;;;2.45;0.82;;;;;;;;;;5483533;26;20352;-80
2024/04/12 09:28:32;;;;;;;2.60;0.70;;;;;;;;;;5520429;26;20003;-78
2024/04/12 09:33:51;;;;;;;1.30;0.70;;;;;;;;;;5473385;26;20018;-79
2024/04/12 09:36:39;;;;;;;1.88;0.68;;;;;;;;;;5492648;26;20002;-82
2024/04/12 09:39:16;;;;;;;8.15;0.70;;;;;;;;;;5492320;26;20074;-80
2024/04/12 09:41:56;;;;;;;5.15;0.90;;;;;;;;;;5492226;26;20490;-81
2024/04/12 09:44:27;;;;;;;3.05;0.50;;;;;;;;;;5519860;26;20017;-80
2024/04/12 10:37:51;;;;;;;1.75;0.40;;;;;;;;;;5457528;26;20010;-79
2024/04/12 10:40:21;;;;;;;0.88;0.38;;;;;;;;;;5479553;26;20357;-80
2024/04/12 10:42:56;;;;;;;6.65;0.73;;;;;;;;;;5481385;26;19995;-81
2024/04/12 10:45:25;;;;;;;1.40;0.73;;;;;;;;;;5494405;26;20065;-79
2024/04/12 10:47:57;;;;;;;2.55;0.55;;;;;;;;;;5522416;26;20417;-80
2024/04/12 10:50:27;;;;;;;2.92;0.70;;;;;;;;;;5523232;26;19998;-80
2024/04/12 10:52:57;;;;;;;2.28;0.73;;;;;;;;;;5523189;26;20002;-78
2024/04/12 10:55:29;;;;;;;2.53;0.80;;;;;;;;;;5522879;26;20316;-81
2024/04/12 10:57:56;;;;;;;4.43;0.93;;;;;;;;;;5480179;26;20011;-79
2024/04/12 11:00:28;;;;;;;3.17;0.68;;;;;;;;;;5475527;26;20034;-78
2024/04/12 11:02:59;;;;;;;3.75;0.63;;;;;;;;;;5477911;26;20331;-78
2024/04/12 11:08:06;;;;;;;4.30;0.85;;;;;;;;;;5494099;26;20002;-78
2024/04/12 11:10:57;;;;;;;6.60;0.98;;;;;;;;;;5520530;26;19994;-78
2024/04/12 11:13:35;;;;;;;1.67;0.80;;;;;;;;;;5524456;26;20013;-79
2024/04/12 11:32:43;;;;;;;3.20;0.60;;;;;;;;;;5472701;26;19999;-79
2024/04/12 11:35:11;;;;;;;3.42;0.60;;;;;;;;;;5494277;26;20034;-80
2024/04/12 11:37:40;;;;;;;1.38;0.47;;;;;;;;;;5522558;26;19998;-79
2024/04/12 11:40:16;;;;;;;3.15;0.70;;;;;;;;;;5492758;26;20376;-78
2024/04/12 11:42:45;;;;;;;1.55;0.60;;;;;;;;;;5492200;26;20005;-79
2024/04/12 11:45:14;;;;;;;1.05;0.85;;;;;;;;;;5496111;26;20022;-78
2024/04/12 11:47:44;;;;;;;3.50;0.70;;;;;;;;;;5492840;26;19998;-78
2024/04/12 11:50:11;;;;;;;3.08;1.13;;;;;;;;;;5462981;26;20021;-79
2024/04/12 11:52:42;;;;;;;2.05;0.70;;;;;;;;;;5492267;26;20107;-77
2024/04/12 11:55:12;;;;;;;1.30;0.43;;;;;;;;;;5485552;26;20009;-79
2024/04/12 11:57:41;;;;;;;1.88;0.80;;;;;;;;;;5493224;26;20400;-79
2024/04/12 12:00:09;;;;;;;2.13;0.73;;;;;;;;;;5492352;26;20006;-81
2024/04/12 12:02:37;;;;;;;4.00;0.88;;;;;;;;;;5521338;26;20002;-79
2024/04/12 12:05:05;;;;;;;5.60;1.00;;;;;;;;;;5493363;26;20025;-81
2024/04/12 12:07:33;;;;;;;1.40;0.43;;;;;;;;;;5521814;26;20009;-79
2024/04/12 12:10:08;;;;;;;3.90;0.90;;;;;;;;;;5522249;26;20396;-78
2024/04/12 12:12:37;;;;;;;2.25;0.80;;;;;;;;;;5523048;26;20045;-79
2024/04/12 12:15:06;;;;;;;1.58;0.63;;;;;;;;;;5491459;26;20347;-79
2024/04/12 12:17:34;;;;;;;2.25;0.80;;;;;;;;;;5496839;26;19998;-79
2024/04/12 12:20:04;;;;;;;1.73;0.60;;;;;;;;;;5492154;26;20459;-79
2024/04/12 12:22:32;;;;;;;1.73;0.70;;;;;;;;;;5490321;26;20047;-78
2024/04/12 12:24:59;;;;;;;1.23;0.50;;;;;;;;;;5489657;26;20002;-79
2024/04/12 12:27:32;;;;;;;1.63;0.77;;;;;;;;;;5491712;26;20002;-78
2024/04/12 12:30:04;;;;;;;3.28;0.80;;;;;;;;;;5489501;26;20332;-79
2024/04/12 12:32:34;;;;;;;2.22;0.77;;;;;;;;;;5490477;26;20074;-81
2024/04/12 12:35:06;;;;;;;4.20;0.52;;;;;;;;;;5491200;26;20010;-80
2024/04/12 12:37:34;;;;;;;1.88;0.50;;;;;;;;;;5491668;26;20325;-78
2024/04/12 12:40:02;;;;;;;6.47;0.85;;;;;;;;;;5491690;26;20013;-79
2024/04/12 12:42:31;;;;;;;2.38;0.60;;;;;;;;;;5491704;26;20070;-79
2024/04/12 12:44:59;;;;;;;4.00;0.82;;;;;;;;;;5490949;26;20075;-78
2024/04/12 12:47:27;;;;;;;1.27;0.57;;;;;;;;;;5490890;26;20071;-79
2024/04/12 12:49:58;;;;;;;1.75;0.70;;;;;;;;;;5488398;26;20079;-78
2024/04/12 12:52:27;;;;;;;2.78;0.60;;;;;;;;;;5455860;26;19995;-79
2024/04/12 12:55:00;;;;;;;3.65;0.80;;;;;;;;;;5454190;26;20013;-78
2024/04/12 12:57:38;;;;;;;7.35;0.85;;;;;;;;;;5480506;26;20006;-79
2024/04/12 13:00:18;;;;;;;2.35;0.70;;;;;;;;;;5501879;26;20079;-79
2024/04/12 13:02:50;;;;;;;3.95;0.70;;;;;;;;;;5487413;26;20062;-79
2024/04/12 13:05:19;;;;;;;1.05;0.68;;;;;;;;;;5492268;26;20002;-79
2024/04/12 13:07:51;;;;;;;3.70;1.13;;;;;;;;;;5493207;26;20463;-79
2024/04/12 13:10:19;;;;;;;2.15;0.80;;;;;;;;;;5490687;26;20002;-80
2024/04/12 13:12:51;;;;;;;1.98;0.50;;;;;;;;;;5491852;26;20002;-80
2024/04/12 13:15:19;;;;;;;2.63;0.70;;;;;;;;;;5492778;26;19998;-79
2024/04/12 13:17:47;;;;;;;1.55;0.60;;;;;;;;;;5493077;26;20009;-79
2024/04/12 13:20:20;;;;;;;3.17;0.77;;;;;;;;;;5522813;26;20006;-80
2024/04/12 13:22:47;;;;;;;1.17;0.75;;;;;;;;;;5492368;26;20359;-81
2024/04/12 13:25:15;;;;;;;5.43;1.02;;;;;;;;;;5493474;26;20010;-78
2024/04/12 13:27:51;;;;;;;2.95;0.80;;;;;;;;;;5493270;26;20352;-83
2024/04/12 13:30:30;;;;;;;8.52;1.00;;;;;;;;;;5491684;26;19998;-80
2024/04/12 13:32:58;;;;;;;1.40;0.63;;;;;;;;;;5490339;26;20030;-80
2024/04/12 13:35:28;;;;;;;3.00;0.68;;;;;;;;;;5490694;26;20044;-80
2024/04/12 13:37:55;;;;;;;8.57;0.80;;;;;;;;;;5489770;26;20327;-79
2024/04/12 13:40:25;;;;;;;2.50;0.60;;;;;;;;;;5489832;26;20005;-78
2024/04/12 13:42:54;;;;;;;1.13;0.65;;;;;;;;;;5492183;26;20363;-80
2024/04/12 13:50:58;;;;;;;2.60;0.82;;;;;;;;;;5494600;26;19994;-79
2024/04/12 13:53:32;;;;;;;4.20;0.77;;;;;;;;;;5497636;26;20067;-78
2024/04/12 13:56:25;;;;;;;3.88;1.05;;;;;;;;;;5456156;26;20336;-80
2024/04/12 13:58:58;;;;;;;5.72;0.80;;;;;;;;;;5487412;26;20002;-77
2024/04/12 14:01:29;;;;;;;3.58;0.70;;;;;;;;;;5492861;26;20022;-80
2024/04/12 14:04:04;;;;;;;3.80;0.70;;;;;;;;;;5494317;26;19998;-77
2024/04/12 14:06:34;;;;;;;3.50;0.93;;;;;;;;;;5493827;26;20010;-80
2024/04/12 14:09:03;;;;;;;2.55;0.90;;;;;;;;;;5494232;26;20050;-81
2024/04/12 14:11:31;;;;;;;3.35;0.75;;;;;;;;;;5494636;26;19994;-80
2024/04/12 14:13:58;;;;;;;5.18;0.80;;;;;;;;;;5494091;26;19994;-79
2024/04/12 14:16:32;;;;;;;2.45;0.80;;;;;;;;;;5523194;26;20006;-82
2024/04/12 14:18:59;;;;;;;4.57;0.90;;;;;;;;;;5523908;26;20006;-77
2024/04/12 14:21:27;;;;;;;2.15;1.00;;;;;;;;;;5494514;26;20009;-80
2024/04/12 14:24:02;;;;;;;1.35;0.70;;;;;;;;;;5523165;26;20458;-81
2024/04/12 14:26:31;;;;;;;3.33;0.77;;;;;;;;;;5523832;26;20005;-80
2024/04/12 14:29:01;;;;;;;1.80;0.80;;;;;;;;;;5493988;26;19994;-79
2024/04/12 14:31:28;;;;;;;1.02;0.70;;;;;;;;;;5493843;26;20009;-78
2024/04/12 14:33:56;;;;;;;4.90;0.98;;;;;;;;;;5462024;26;20003;-80
2024/04/12 14:36:24;;;;;;;0.90;0.63;;;;;;;;;;5454923;26;20009;-80
2024/04/12 14:38:51;;;;;;;2.83;0.95;;;;;;;;;;5487689;26;20451;-79
2024/04/12 14:41:19;;;;;;;2.15;0.70;;;;;;;;;;5491404;26;20024;-80
2024/04/12 14:43:48;;;;;;;2.85;1.00;;;;;;;;;;5493072;26;19998;-80
2024/04/12 14:46:18;;;;;;;2.90;0.77;;;;;;;;;;5493400;26;20016;-81
2024/04/12 14:48:45;;;;;;;1.83;0.70;;;;;;;;;;5492777;26;20394;-80
2024/04/12 14:51:13;;;;;;;1.90;0.60;;;;;;;;;;5493368;26;20336;-80
2024/04/12 14:53:42;;;;;;;2.05;0.80;;;;;;;;;;5495396;26;20045;-80
2024/04/12 14:56:10;;;;;;;2.40;1.25;;;;;;;;;;5489928;26;19998;-78
2024/04/12 14:58:38;;;;;;;2.72;0.85;;;;;;;;;;5494161;26;20017;-80
2024/04/12 15:01:06;;;;;;;1.88;0.75;;;;;;;;;;5494189;26;19998;-79
2024/04/12 15:48:11;;;;;;;3.20;1.00;;;;;;;;;;5494071;26;20010;-79
2024/04/12 15:50:49;;;;;;;2.72;0.95;;;;;;;;;;5491904;26;20010;-80
2024/04/12 15:53:18;;;;;;;2.85;1.02;;;;;;;;;;5492355;26;20431;-79
2024/04/12 16:12:27;;;;;;;5.13;1.17;;;;;;;;;;5494627;26;19994;-79
2024/04/12 16:14:55;;;;;;;3.17;0.80;;;;;;;;;;5523051;26;20005;-80
2024/04/12 16:17:23;;;;;;;3.60;1.15;;;;;;;;;;5494264;26;20365;-80
2024/04/12 16:19:52;;;;;;;2.42;1.10;;;;;;;;;;5522994;26;20002;-80
2024/04/12 16:22:21;;;;;;;6.38;1.08;;;;;;;;;;5499251;26;19998;-80
2024/04/12 16:24:52;;;;;;;3.63;1.30;;;;;;;;;;5474170;26;20340;-80
2024/04/12 16:27:20;;;;;;;4.20;1.50;;;;;;;;;;5523749;26;19998;-80
2024/04/12 16:29:48;;;;;;;12.20;1.65;;;;;;;;;;5507753;26;19999;-79
2024/04/12 16:32:18;;;;;;;4.40;1.40;;;;;;;;;;5455694;26;20023;-79
2024/04/12 16:34:45;;;;;;;2.17;1.10;;;;;;;;;;5456981;26;20013;-80
2024/04/12 16:37:13;;;;;;;4.35;1.48;;;;;;;;;;5453927;26;20023;-77
2024/04/12 16:39:41;;;;;;;6.07;1.52;;;;;;;;;;5456105;26;20464;-79
2024/04/12 16:42:08;;;;;;;1.63;1.00;;;;;;;;;;5454465;26;20452;-79
2024/04/12 16:44:36;;;;;;;2.25;1.58;;;;;;;;;;5454198;26;20516;-79
2024/04/12 16:47:03;;;;;;;2.08;1.05;;;;;;;;;;5456037;26;20339;-80
2024/04/12 16:49:31;;;;;;;3.83;0.98;;;;;;;;;;5470790;26;19999;-80
2024/04/12 16:51:59;;;;;;;5.35;1.60;;;;;;;;;;5456965;26;20338;-80
2024/04/12 16:54:26;;;;;;;6.43;0.80;;;;;;;;;;5465892;26;20443;-80
2024/04/12 16:56:55;;;;;;;2.50;1.10;;;;;;;;;;5492550;26;20009;-79
2024/04/12 16:59:22;;;;;;;3.33;1.40;;;;;;;;;;5496913;26;20007;-78
2024/04/12 17:01:50;;;;;;;4.90;1.70;;;;;;;;;;5486464;26;20486;-80
2024/04/12 17:04:18;;;;;;;14.02;1.60;;;;;;;;;;5493680;26;20033;-80
2024/04/12 17:06:46;;;;;;;3.65;1.38;;;;;;;;;;5493638;26;20070;-80
2024/04/12 17:09:14;;;;;;;3.38;1.38;;;;;;;;;;5506712;26;20077;-80
2024/04/12 17:11:42;;;;;;;2.97;1.00;;;;;;;;;;5496924;26;20055;-80
2024/04/12 17:14:10;;;;;;;5.43;1.55;;;;;;;;;;5495160;26;20008;-79
2024/04/12 17:16:37;;;;;;;3.17;1.60;;;;;;;;;;5496046;26;20002;-81
2024/04/12 17:19:09;;;;;;;4.80;1.63;;;;;;;;;;5498602;26;19998;-80
2024/04/12 17:21:36;;;;;;;2.50;1.10;;;;;;;;;;5495778;26;20486;-80
2024/04/12 17:24:04;;;;;;;5.47;1.55;;;;;;;;;;5494280;26;20055;-80
2024/04/12 17:26:31;;;;;;;6.88;1.40;;;;;;;;;;5493217;26;20039;-79
2024/04/12 17:28:59;;;;;;;4.10;1.45;;;;;;;;;;5493171;26;20034;-80
2024/04/12 17:31:27;;;;;;;2.47;1.10;;;;;;;;;;5491190;26;20035;-79
2024/04/12 17:33:54;;;;;;;3.03;1.30;;;;;;;;;;5493509;26;20467;-82
2024/04/12 17:36:24;;;;;;;3.05;1.20;;;;;;;;;;5494162;26;20002;-80